Terminal Aerodrome Forecast
Issued by NWS Burlington, VT

Current Version | Previous Version | Text Only | Print | Product List | Glossary On
Versions: 1 2 3 4 5 6 7 8 9 10 11 12
000 FTUS41 KBTV 010532 TAFBTV TAF KBTV 010532Z 0106/0206 00000KT P6SM SKC TEMPO 0106/0110 5SM BR FM011400 19005KT P6SM FEW250 FM012300 00000KT P6SM FEW200=

USA.gov is the U.S. government's official web portal to all federal, state and local government web resources and services.